Time;durP1;ratioP1;P1;durP2;ratioP2;P2;SDS_P1;SDS_P2;PMS_P1;PMS_P2;Temp;Humidity;BMP_temperature;BMP_pressure;BME280_temperature;BME280_humidity;BME280_pressure;Samples;Min_cycle;Max_cycle;Signal;HPM_P1;HPM_P2
2024/01/22 00:00:19;;;;;;;12.43;12.03;;;;;;;-141.02;100.00;88240.81;5112910;28;20276;-68
2024/01/22 00:02:47;;;;;;;12.37;11.97;;;;;;;-141.02;100.00;87742.81;5113117;28;20193;-68
2024/01/22 00:05:14;;;;;;;12.37;11.97;;;;;;;-141.02;100.00;87493.84;5113116;28;20193;-68
2024/01/22 00:07:41;;;;;;;12.53;12.13;;;;;;;-141.02;100.00;88489.84;5113066;28;20199;-68
2024/01/22 00:10:09;;;;;;;11.80;11.50;;;;;;;-141.02;100.00;89984.41;5113052;28;20203;-68
2024/01/22 00:12:37;;;;;;;10.87;10.57;;;;;;;-141.02;100.00;90981.13;5112623;28;20584;-68
2024/01/22 00:15:05;;;;;;;12.17;11.80;;;;;;;-141.02;100.00;91728.88;5112516;28;20574;-69
2024/01/22 00:17:32;;;;;;;12.50;12.10;;;;;;;-141.02;100.00;92975.47;5112981;28;20208;-68
2024/01/22 00:20:00;;;;;;;12.30;11.90;;;;;;;-141.02;100.00;93723.63;5112599;28;20658;-68
2024/01/22 00:22:27;;;;;;;12.30;11.90;;;;;;;-141.02;100.00;93973.06;5112553;28;20276;-68
2024/01/22 00:24:54;;;;;;;12.93;12.53;;;;;;;-141.02;100.00;95470.00;5112798;28;20275;-69
2024/01/22 00:27:21;;;;;;;13.30;12.90;;;;;;;-141.02;100.00;98216.03;5112839;28;20197;-68
2024/01/22 00:29:48;;;;;;;13.47;13.07;;;;;;;-141.02;100.00;100464.44;5112727;28;20203;-68
2024/01/22 00:32:15;;;;;;;14.43;14.03;;;;;;;-141.02;100.00;101464.19;5112256;28;20197;-68
2024/01/22 00:34:42;;;;;;;12.87;12.47;;;;;;;-141.02;100.00;101714.16;5112772;28;20281;-67
2024/01/22 00:37:10;;;;;;;11.80;11.50;;;;;;;-141.02;100.00;101964.16;5112549;28;20283;-68
2024/01/22 00:39:37;;;;;;;12.70;12.30;;;;;;;-141.02;100.00;102214.16;5112383;28;20197;-68
2024/01/22 00:42:05;;;;;;;11.60;11.30;;;;;;;-141.02;100.00;102214.16;5112630;28;20272;-68
2024/01/22 00:44:32;;;;;;;13.87;13.47;;;;;;;-141.02;100.00;102214.16;5112523;28;20197;-68
2024/01/22 00:46:58;;;;;;;11.80;11.50;;;;;;;-141.02;100.00;101964.16;5112278;28;20549;-68
2024/01/22 00:49:25;;;;;;;11.33;11.03;;;;;;;-141.02;100.00;101714.16;5112608;28;20193;-68
2024/01/22 00:51:52;;;;;;;10.50;10.20;;;;;;;-141.02;100.00;102464.22;5112570;28;20196;-68
2024/01/22 00:54:21;;;;;;;11.70;11.40;;;;;;;-141.02;100.00;102214.16;5112526;28;20272;-68
2024/01/22 00:56:48;;;;;;;13.40;13.00;;;;;;;-141.02;100.00;101464.19;5112559;28;20233;-68
2024/01/22 00:59:14;;;;;;;12.03;11.73;;;;;;;-141.02;100.00;101214.22;5112260;28;20193;-68
2024/01/22 01:01:41;;;;;;;11.43;11.13;;;;;;;-141.02;100.00;101464.19;5112141;28;20594;-67
2024/01/22 01:04:08;;;;;;;10.90;10.60;;;;;;;-141.02;100.00;101714.16;5112109;28;20200;-67
2024/01/22 01:06:35;;;;;;;12.10;11.80;;;;;;;-141.02;100.00;101964.16;5112041;28;20649;-67
2024/01/22 01:09:03;;;;;;;13.17;12.77;;;;;;;-141.02;100.00;102464.22;5112398;28;20201;-68
2024/01/22 01:11:31;;;;;;;12.70;12.30;;;;;;;-141.02;100.00;102714.25;5113378;28;20204;-67
2024/01/22 01:13:58;;;;;;;12.23;11.93;;;;;;;-141.02;100.00;102964.34;5112041;28;20284;-67
2024/01/22 01:16:25;;;;;;;13.60;13.20;;;;;;;-141.02;100.00;103464.53;5111855;28;20240;-67
2024/01/22 01:18:52;;;;;;;13.27;12.87;;;;;;;-141.02;100.00;103464.53;5112246;28;20228;-67
2024/01/22 01:21:22;;;;;;;10.33;10.03;;;;;;;-141.02;100.00;103464.53;5112544;28;20288;-68
2024/01/22 01:23:49;;;;;;;9.50;9.20;;;;;;;-141.02;100.00;103464.53;5111927;28;20193;-69
2024/01/22 01:26:16;;;;;;;13.07;12.67;;;;;;;-141.02;100.00;103714.66;5112231;28;20283;-66
2024/01/22 01:28:44;;;;;;;14.43;14.03;;;;;;;-141.02;100.00;103464.53;5112252;28;20577;-67
2024/01/22 01:31:11;;;;;;;9.83;9.53;;;;;;;-141.02;100.00;103214.44;5112196;28;20193;-67
2024/01/22 01:33:38;;;;;;;10.10;9.80;;;;;;;-141.02;100.00;103214.44;5111881;28;20240;-66
2024/01/22 01:36:05;;;;;;;10.27;9.97;;;;;;;-141.02;100.00;103464.53;5111771;28;20781;-67
2024/01/22 01:38:32;;;;;;;9.53;9.23;;;;;;;-141.02;100.00;103464.53;5111764;28;20580;-69
2024/01/22 01:40:59;;;;;;;8.77;8.57;;;;;;;-141.02;100.00;103714.66;5112119;28;20630;-69
2024/01/22 01:43:26;;;;;;;8.93;8.73;;;;;;;-141.02;100.00;104465.16;5113862;28;20224;-68
2024/01/22 01:45:55;;;;;;;9.07;8.87;;;;;;;-141.02;100.00;104465.16;5115648;28;20666;-68
2024/01/22 01:48:22;;;;;;;8.73;8.53;;;;;;;-141.02;100.00;104214.97;5115641;28;20193;-67
2024/01/22 01:50:49;;;;;;;8.20;8.00;;;;;;;-141.02;100.00;103714.66;5115326;28;20197;-66
2024/01/22 01:53:16;;;;;;;8.57;8.37;;;;;;;-141.02;100.00;103464.53;5115493;28;20204;-68
2024/01/22 01:55:46;;;;;;;8.50;8.30;;;;;;;-141.02;100.00;103464.53;5115416;28;20728;-67
2024/01/22 01:58:15;;;;;;;13.63;13.23;;;;;;;-141.02;100.00;103214.44;5115539;28;20194;-68
2024/01/22 02:00:44;;;;;;;12.67;12.27;;;;;;;-141.02;100.00;103214.44;5115175;28;20671;-68
2024/01/22 02:03:13;;;;;;;12.87;12.47;;;;;;;-141.02;100.00;102714.25;5115388;28;20697;-67
2024/01/22 02:05:40;;;;;;;13.53;13.13;;;;;;;-141.02;100.00;102714.25;5115011;28;20550;-66
2024/01/22 02:08:07;;;;;;;14.00;13.60;;;;;;;-141.02;100.00;102714.25;5115116;28;20197;-67
2024/01/22 02:10:34;;;;;;;13.70;13.30;;;;;;;-141.02;100.00;102214.16;5114912;28;20667;-68
2024/01/22 02:13:04;;;;;;;13.93;13.53;;;;;;;-141.02;100.00;101464.19;5115258;28;20276;-69
2024/01/22 02:15:32;;;;;;;14.00;13.60;;;;;;;-141.02;100.00;101464.19;5114924;28;20251;-67
2024/01/22 02:18:00;;;;;;;13.87;13.47;;;;;;;-141.02;100.00;101714.16;5115129;28;20201;-68
2024/01/22 02:20:29;;;;;;;14.70;14.30;;;;;;;-141.02;100.00;102214.16;5114787;28;20197;-66
2024/01/22 02:22:56;;;;;;;14.77;14.37;;;;;;;-141.02;100.00;101714.16;5114942;28;20559;-67
2024/01/22 02:25:24;;;;;;;14.13;13.73;;;;;;;-141.02;100.00;101464.19;5114663;28;20581;-67
2024/01/22 02:27:51;;;;;;;11.13;10.83;;;;;;;-141.02;100.00;101214.22;5114613;28;20200;-67
2024/01/22 02:30:18;;;;;;;12.67;12.27;;;;;;;-141.02;100.00;101214.22;5115110;28;20197;-67
2024/01/22 02:32:45;;;;;;;12.00;11.70;;;;;;;-141.02;100.00;101714.16;5114792;28;20199;-67
2024/01/22 02:35:12;;;;;;;13.03;12.63;;;;;;;-141.02;100.00;102214.16;5115563;28;20196;-69
2024/01/22 02:37:39;;;;;;;12.57;12.17;;;;;;;-141.02;100.00;102464.22;5114718;28;20229;-69
2024/01/22 02:40:07;;;;;;;12.10;11.80;;;;;;;-141.02;100.00;101714.16;5114345;28;20629;-70
2024/01/22 02:42:36;;;;;;;11.93;11.63;;;;;;;-141.02;100.00;100964.25;5114614;28;20209;-69
2024/01/22 02:45:04;;;;;;;11.73;11.43;;;;;;;-141.02;100.00;100964.25;5114529;28;20193;-66
2024/01/22 02:47:31;;;;;;;10.77;10.47;;;;;;;-141.02;100.00;100964.25;5114498;28;20246;-70
2024/01/22 02:49:58;;;;;;;13.07;12.67;;;;;;;-141.02;100.00;101214.22;5114538;28;20195;-68
2024/01/22 02:52:25;;;;;;;10.40;10.10;;;;;;;-141.02;100.00;100714.34;5114335;28;20199;-69
2024/01/22 02:54:52;;;;;;;14.20;13.80;;;;;;;-141.02;100.00;100714.34;5113666;28;20203;-70
2024/01/22 02:57:19;;;;;;;10.43;10.13;;;;;;;-141.02;100.00;100964.25;5114226;28;20247;-68
2024/01/22 02:59:47;;;;;;;11.43;11.13;;;;;;;-141.02;100.00;101464.19;5114243;28;20193;-67
2024/01/22 03:02:14;;;;;;;10.87;10.57;;;;;;;-141.02;100.00;102214.16;5113953;28;20205;-67
2024/01/22 03:04:41;;;;;;;9.87;9.57;;;;;;;-141.02;100.00;102214.16;5114147;28;20280;-68
2024/01/22 03:07:09;;;;;;;9.67;9.37;;;;;;;-141.02;100.00;101964.16;5114126;28;20232;-70
2024/01/22 03:09:35;;;;;;;9.70;9.40;;;;;;;-141.02;100.00;101714.16;5113772;28;20200;-70
2024/01/22 03:12:03;;;;;;;10.27;9.97;;;;;;;-141.02;100.00;101714.16;5113788;28;20193;-68
2024/01/22 03:14:30;;;;;;;9.83;9.53;;;;;;;-141.02;100.00;101964.16;5113810;28;20228;-70
2024/01/22 03:16:58;;;;;;;8.13;7.93;;;;;;;-141.02;100.00;102214.16;5113723;28;20324;-69
2024/01/22 03:19:25;;;;;;;9.43;9.23;;;;;;;-141.02;100.00;102464.22;5114235;28;20197;-70
2024/01/22 03:21:52;;;;;;;7.70;7.50;;;;;;;-141.02;100.00;102214.16;5113527;28;20190;-70
2024/01/22 03:24:18;;;;;;;9.50;9.20;;;;;;;-141.02;100.00;102214.16;5113818;28;20276;-72
2024/01/22 03:26:45;;;;;;;11.00;10.70;;;;;;;-141.02;100.00;102464.22;5113421;28;20200;-70
2024/01/22 03:29:12;;;;;;;9.80;9.50;;;;;;;-141.02;100.00;102964.34;5113699;28;20195;-71
2024/01/22 03:31:39;;;;;;;9.10;8.90;;;;;;;-141.02;100.00;102714.25;5113673;28;20288;-69
2024/01/22 03:34:08;;;;;;;9.17;8.97;;;;;;;-141.02;100.00;102214.16;5113345;28;20206;-71
2024/01/22 03:36:36;;;;;;;9.97;9.67;;;;;;;-141.02;100.00;102214.16;5113500;28;20251;-71
2024/01/22 03:39:03;;;;;;;9.67;9.37;;;;;;;-141.02;100.00;102214.16;5113200;28;20284;-72
2024/01/22 03:41:30;;;;;;;11.80;11.50;;;;;;;-141.02;100.00;102464.22;5113255;28;20203;-70
2024/01/22 03:43:57;;;;;;;11.03;10.73;;;;;;;-141.02;100.00;103214.44;5113531;28;20200;-70
2024/01/22 03:46:24;;;;;;;11.13;10.83;;;;;;;-141.02;100.00;102464.22;5113573;28;20189;-71
2024/01/22 03:48:51;;;;;;;11.13;10.83;;;;;;;-141.02;100.00;101964.16;5113339;28;20202;-72
2024/01/22 03:51:19;;;;;;;11.33;11.03;;;;;;;-141.02;100.00;101214.22;5113230;28;20189;-72
2024/01/22 03:53:46;;;;;;;12.17;11.83;;;;;;;-141.02;100.00;100714.34;5113497;28;20203;-70
2024/01/22 03:56:13;;;;;;;10.53;10.23;;;;;;;-141.02;100.00;100214.53;5112892;28;20260;-72
2024/01/22 03:58:40;;;;;;;10.20;9.90;;;;;;;-141.02;100.00;98965.34;5113051;28;20192;-66
2024/01/22 04:01:07;;;;;;;11.30;11.00;;;;;;;-141.02;100.00;97466.91;5113127;28;20197;-71
2024/01/22 04:03:34;;;;;;;9.57;9.27;;;;;;;-141.02;100.00;96967.56;5112727;28;20199;-67
2024/01/22 04:06:01;;;;;;;11.27;10.97;;;;;;;-141.02;100.00;96468.31;5112025;28;20669;-69
2024/01/22 04:08:29;;;;;;;10.40;10.10;;;;;;;-141.02;100.00;95969.13;5113035;28;20578;-70
2024/01/22 04:10:56;;;;;;;10.37;10.07;;;;;;;-141.02;100.00;95719.53;5112668;28;20193;-68
2024/01/22 04:13:23;;;;;;;9.90;9.60;;;;;;;-141.02;100.00;95470.00;5112987;28;20276;-69
2024/01/22 04:15:54;;;;;;;9.63;9.33;;;;;;;-141.02;100.00;94970.94;5112437;28;20221;-70
2024/01/22 04:18:20;;;;;;;9.23;9.00;;;;;;;-141.02;100.00;94970.94;5112603;28;20194;-68
2024/01/22 04:20:47;;;;;;;8.87;8.67;;;;;;;-141.02;100.00;93973.06;5112574;28;20288;-72
2024/01/22 04:23:14;;;;;;;9.27;9.00;;;;;;;-141.02;100.00;92975.47;5112535;28;20758;-72
2024/01/22 04:25:43;;;;;;;9.60;9.30;;;;;;;-141.02;100.00;92726.13;5112782;28;20196;-71
2024/01/22 04:28:10;;;;;;;9.17;8.97;;;;;;;-141.02;100.00;92726.13;5112818;28;20225;-72
2024/01/22 04:30:37;;;;;;;9.80;9.50;;;;;;;-141.02;100.00;92975.47;5112744;28;20189;-72
2024/01/22 04:33:05;;;;;;;10.93;10.63;;;;;;;-141.02;100.00;93474.22;5112716;28;20280;-72
2024/01/22 04:35:32;;;;;;;10.83;10.53;;;;;;;-141.02;100.00;93723.63;5112731;28;20284;-72
2024/01/22 04:37:59;;;;;;;11.20;10.90;;;;;;;-141.02;100.00;93224.84;5112625;28;20275;-72
2024/01/22 04:40:26;;;;;;;10.90;10.60;;;;;;;-141.02;100.00;92726.13;5112330;28;20288;-72
2024/01/22 04:42:54;;;;;;;11.00;10.70;;;;;;;-141.02;100.00;93224.84;5112405;28;20576;-70
2024/01/22 04:45:21;;;;;;;11.10;10.80;;;;;;;-141.02;100.00;93474.22;5112440;28;20196;-71
2024/01/22 04:47:48;;;;;;;11.60;11.30;;;;;;;-141.02;100.00;93723.63;5112730;28;20569;-71
2024/01/22 04:50:15;;;;;;;11.87;11.53;;;;;;;-141.02;100.00;93474.22;5112522;28;20321;-70
2024/01/22 04:52:42;;;;;;;10.80;10.50;;;;;;;-141.02;100.00;93474.22;5112617;28;20229;-72
2024/01/22 04:55:10;;;;;;;10.53;10.23;;;;;;;-141.02;100.00;93723.63;5112264;28;20243;-71
2024/01/22 04:57:37;;;;;;;10.07;9.77;;;;;;;-141.02;100.00;93474.22;5112430;28;20237;-72
2024/01/22 05:00:07;;;;;;;11.17;10.87;;;;;;;-141.02;100.00;93474.22;5112192;28;20203;-72
2024/01/22 05:02:34;;;;;;;11.30;11.00;;;;;;;-141.02;100.00;93474.22;5112177;28;20196;-72
2024/01/22 05:05:02;;;;;;;10.27;9.97;;;;;;;-141.02;100.00;93474.22;5112156;28;20189;-72
2024/01/22 05:07:29;;;;;;;9.47;9.17;;;;;;;-141.02;100.00;93474.22;5112454;28;20280;-71
2024/01/22 05:09:58;;;;;;;8.50;8.30;;;;;;;-141.02;100.00;93224.84;5112343;28;20197;-71
2024/01/22 05:12:25;;;;;;;8.67;8.47;;;;;;;-141.02;100.00;93224.84;5112100;28;20190;-72
2024/01/22 05:14:52;;;;;;;10.07;9.77;;;;;;;-141.02;100.00;93224.84;5112409;28;20189;-70
2024/01/22 05:17:21;;;;;;;9.23;9.03;;;;;;;-141.02;100.00;93474.22;5113832;28;20323;-71
2024/01/22 05:19:48;;;;;;;8.30;8.10;;;;;;;-141.02;100.00;93224.84;5115957;28;20238;-72
2024/01/22 05:22:15;;;;;;;10.47;10.17;;;;;;;-141.02;100.00;92975.47;5115915;28;20288;-72
2024/01/22 05:24:42;;;;;;;10.07;9.77;;;;;;;-141.02;100.00;92975.47;5115900;28;20196;-69
2024/01/22 05:27:10;;;;;;;10.67;10.37;;;;;;;-141.02;100.00;92975.47;5115906;28;20284;-70
2024/01/22 05:29:37;;;;;;;11.57;11.27;;;;;;;-141.02;100.00;92975.47;5116325;28;20209;-70
2024/01/22 05:32:04;;;;;;;11.07;10.77;;;;;;;-141.02;100.00;92476.78;5115718;28;20193;-71
2024/01/22 05:34:32;;;;;;;14.30;13.90;;;;;;;-141.02;100.00;91978.16;5115963;28;20677;-69
2024/01/22 05:36:59;;;;;;;11.83;11.53;;;;;;;-141.02;100.00;91978.16;5115532;28;20591;-70
2024/01/22 05:39:27;;;;;;;11.20;10.90;;;;;;;-141.02;100.00;91978.16;5115889;28;20197;-70
2024/01/22 05:41:54;;;;;;;11.13;10.83;;;;;;;-141.02;100.00;92476.78;5115846;28;20250;-71
2024/01/22 05:44:21;;;;;;;11.80;11.43;;;;;;;-141.02;100.00;92726.13;5115761;28;20246;-72
2024/01/22 05:46:48;;;;;;;11.03;10.73;;;;;;;-141.02;100.00;92476.78;5115750;28;20275;-70
2024/01/22 05:49:18;;;;;;;11.23;10.93;;;;;;;-141.02;100.00;92476.78;5115638;28;20197;-70
2024/01/22 05:51:47;;;;;;;11.67;11.37;;;;;;;-141.02;100.00;93224.84;5115628;28;20197;-71
2024/01/22 05:54:14;;;;;;;10.37;10.07;;;;;;;-141.02;100.00;93474.22;5115335;28;20638;-68
2024/01/22 05:56:41;;;;;;;10.43;10.13;;;;;;;-141.02;100.00;93723.63;5115741;28;20196;-68
2024/01/22 05:59:08;;;;;;;10.47;10.17;;;;;;;-141.02;100.00;93973.06;5115209;28;20564;-71
2024/01/22 06:01:35;;;;;;;9.60;9.30;;;;;;;-141.02;100.00;94222.50;5115420;28;20192;-71
2024/01/22 06:04:04;;;;;;;10.73;10.43;;;;;;;-141.02;100.00;93474.22;5115158;28;20203;-69
2024/01/22 06:06:30;;;;;;;8.87;8.67;;;;;;;-141.02;100.00;92476.78;5115340;28;20189;-71
2024/01/22 06:08:59;;;;;;;9.70;9.40;;;;;;;-141.02;100.00;92227.47;5115070;28;20205;-70
2024/01/22 06:11:27;;;;;;;10.00;9.70;;;;;;;-141.02;100.00;92227.47;5115338;28;20220;-69
2024/01/22 06:13:54;;;;;;;10.70;10.40;;;;;;;-141.02;100.00;92227.47;5115157;28;20200;-69
2024/01/22 06:16:21;;;;;;;10.70;10.40;;;;;;;-141.02;100.00;92476.78;5114849;28;20235;-68
2024/01/22 06:18:48;;;;;;;11.33;11.03;;;;;;;-141.02;100.00;92476.78;5115001;28;20231;-70
2024/01/22 06:21:15;;;;;;;10.30;10.00;;;;;;;-141.02;100.00;92975.47;5114865;28;20199;-66
2024/01/22 06:23:42;;;;;;;10.47;10.17;;;;;;;-141.02;100.00;93474.22;5114670;28;20197;-68
2024/01/22 06:26:11;;;;;;;10.50;10.20;;;;;;;-141.02;100.00;93723.63;5114991;28;20204;-66
2024/01/22 06:28:38;;;;;;;13.50;13.10;;;;;;;-141.02;100.00;93723.63;5114328;28;20280;-66
2024/01/22 06:31:06;;;;;;;10.50;10.20;;;;;;;-141.02;100.00;93474.22;5115039;28;20197;-69
2024/01/22 06:33:33;;;;;;;10.40;10.10;;;;;;;-141.02;100.00;93474.22;5114809;28;20246;-69
2024/01/22 06:36:00;;;;;;;12.53;12.13;;;;;;;-141.02;100.00;93723.63;5114745;28;20193;-69
2024/01/22 06:38:26;;;;;;;10.33;10.03;;;;;;;-141.02;100.00;94222.50;5114364;28;20229;-70
2024/01/22 06:40:54;;;;;;;9.50;9.20;;;;;;;-141.02;100.00;94471.97;5114393;28;20200;-68
2024/01/22 06:43:23;;;;;;;8.50;8.30;;;;;;;-141.02;100.00;94471.97;5114306;28;20258;-68
2024/01/22 06:45:50;;;;;;;9.80;9.50;;;;;;;-141.02;100.00;94721.44;5114286;28;20193;-68
2024/01/22 06:48:17;;;;;;;8.60;8.40;;;;;;;-141.02;100.00;94970.94;5114272;28;20260;-70
2024/01/22 06:50:44;;;;;;;7.57;7.37;;;;;;;-141.02;100.00;95719.53;5114508;28;20199;-67
2024/01/22 06:53:11;;;;;;;8.13;7.93;;;;;;;-141.02;100.00;96218.69;5114635;28;20189;-64
2024/01/22 06:55:38;;;;;;;7.60;7.40;;;;;;;-141.02;100.00;96717.94;5114357;28;20280;-66
2024/01/22 06:58:06;;;;;;;8.80;8.60;;;;;;;-141.02;100.00;97217.22;5114128;28;20312;-67
2024/01/22 07:00:36;;;;;;;9.10;8.90;;;;;;;-141.02;100.00;96967.56;5114347;28;20204;-65
2024/01/22 07:03:04;;;;;;;8.80;8.60;;;;;;;-141.02;100.00;96967.56;5113987;28;20193;-65
2024/01/22 07:05:32;;;;;;;9.47;9.17;;;;;;;-141.02;100.00;97466.91;5113863;28;20200;-67
2024/01/22 07:07:59;;;;;;;10.03;9.73;;;;;;;-141.02;100.00;97466.91;5114130;28;20298;-66
2024/01/22 07:10:26;;;;;;;10.33;10.03;;;;;;;-141.02;100.00;97716.59;5113776;28;20233;-68
2024/01/22 07:12:53;;;;;;;9.97;9.67;;;;;;;-141.02;100.00;97466.91;5114005;28;20189;-68
2024/01/22 07:15:20;;;;;;;10.03;9.73;;;;;;;-141.02;100.00;97466.91;5113772;28;20271;-67
2024/01/22 07:17:50;;;;;;;10.03;9.73;;;;;;;-141.02;100.00;97466.91;5113928;28;20216;-68
2024/01/22 07:20:17;;;;;;;9.30;9.00;;;;;;;-141.02;100.00;97217.22;5113581;28;20250;-66
2024/01/22 07:22:45;;;;;;;10.10;9.80;;;;;;;-141.02;100.00;96717.94;5113473;28;20643;-66
2024/01/22 07:25:13;;;;;;;9.90;9.60;;;;;;;-141.02;100.00;96468.31;5113537;28;20656;-67
2024/01/22 07:27:42;;;;;;;9.80;9.50;;;;;;;-141.02;100.00;96468.31;5113521;28;20196;-67
2024/01/22 07:30:11;;;;;;;10.20;9.90;;;;;;;-141.02;100.00;97217.22;5113390;28;20280;-67
2024/01/22 07:32:39;;;;;;;9.90;9.60;;;;;;;-141.02;100.00;97466.91;5113385;28;20597;-67
2024/01/22 07:35:10;;;;;;;8.87;8.67;;;;;;;-141.02;100.00;97466.91;5113629;28;20283;-67
2024/01/22 07:37:38;;;;;;;8.97;8.77;;;;;;;-141.02;100.00;97716.59;5113872;28;20224;-66
2024/01/22 07:40:09;;;;;;;9.10;8.90;;;;;;;-141.02;100.00;98216.03;5113525;28;20197;-67
2024/01/22 07:42:36;;;;;;;9.43;9.13;;;;;;;-141.02;100.00;98216.03;5113571;28;20185;-66
2024/01/22 07:45:05;;;;;;;8.57;8.37;;;;;;;-141.02;100.00;98965.34;5113428;28;20227;-67
2024/01/22 07:47:32;;;;;;;7.90;7.70;;;;;;;-141.02;100.00;99464.97;5113090;28;20280;-66
2024/01/22 07:50:00;;;;;;;7.80;7.60;;;;;;;-141.02;100.00;99464.97;5113337;28;20291;-66
2024/01/22 07:52:28;;;;;;;8.23;8.03;;;;;;;-141.02;100.00;99464.97;5113270;28;20193;-66
2024/01/22 07:54:55;;;;;;;8.03;7.83;;;;;;;-141.02;100.00;99714.81;5113297;28;20543;-66
2024/01/22 07:57:22;;;;;;;7.80;7.60;;;;;;;-141.02;100.00;99964.66;5112831;28;20569;-66
2024/01/22 07:59:49;;;;;;;8.47;8.27;;;;;;;-141.02;100.00;99464.97;5113203;28;20223;-65
2024/01/22 08:02:16;;;;;;;9.00;8.80;;;;;;;-141.02;100.00;98965.34;5113108;28;20189;-66
2024/01/22 08:04:43;;;;;;;7.77;7.57;;;;;;;-141.02;100.00;99714.81;5112760;28;20281;-65
2024/01/22 08:07:10;;;;;;;8.57;8.37;;;;;;;-141.02;100.00;99964.66;5113046;28;20197;-66
2024/01/22 08:09:40;;;;;;;7.83;7.63;;;;;;;-141.02;100.00;100464.44;5112706;28;20284;-66
2024/01/22 08:12:07;;;;;;;9.70;9.40;;;;;;;-141.02;100.00;100214.53;5112750;28;20655;-66
2024/01/22 08:14:34;;;;;;;9.67;9.37;;;;;;;-141.02;100.00;100964.25;5112651;28;20222;-66
2024/01/22 08:17:02;;;;;;;7.67;7.47;;;;;;;-141.02;100.00;102214.16;5112555;28;20225;-66
2024/01/22 08:19:30;;;;;;;7.43;7.23;;;;;;;-141.02;100.00;102964.34;5112860;28;20247;-66
2024/01/22 08:21:59;;;;;;;6.50;6.30;;;;;;;-141.02;100.00;102964.34;5112900;28;20201;-66
2024/01/22 08:24:26;;;;;;;7.73;7.53;;;;;;;-141.02;100.00;103214.44;5112539;28;20745;-65
2024/01/22 08:26:55;;;;;;;35.00;32.90;;;;;;;-141.02;100.00;102714.25;5112774;28;20225;-65
2024/01/22 08:29:22;;;;;;;7.13;6.93;;;;;;;-141.02;100.00;102464.22;5112510;28;20689;-66
2024/01/22 08:31:49;;;;;;;6.77;6.57;;;;;;;-141.02;100.00;102464.22;5112759;28;20225;-65
2024/01/22 08:34:16;;;;;;;6.00;5.90;;;;;;;-141.02;100.00;102214.16;5112677;28;20228;-65
2024/01/22 08:36:42;;;;;;;6.93;6.73;;;;;;;-141.02;100.00;102714.25;5112712;28;20220;-65
2024/01/22 08:39:09;;;;;;;7.33;7.13;;;;;;;-141.02;100.00;102964.34;5112267;28;20651;-66
2024/01/22 08:41:37;;;;;;;6.57;6.37;;;;;;;-141.02;100.00;103214.44;5112680;28;20224;-66
2024/01/22 08:44:05;;;;;;;5.97;5.87;;;;;;;-141.02;100.00;103214.44;5112731;28;20228;-66
2024/01/22 08:46:32;;;;;;;4.97;4.87;;;;;;;-141.02;100.00;103464.53;5112604;28;20231;-66
2024/01/22 08:48:59;;;;;;;5.70;5.60;;;;;;;-141.02;100.00;104465.16;5112412;28;20239;-66
2024/01/22 08:51:28;;;;;;;5.60;5.50;;;;;;;-141.02;100.00;103714.66;5112934;28;20221;-65
2024/01/22 08:53:54;;;;;;;7.40;7.20;;;;;;;-141.02;100.00;103464.53;5116750;28;20283;-65
2024/01/22 08:56:21;;;;;;;8.20;8.00;;;;;;;-141.02;100.00;103214.44;5116817;28;20193;-65
2024/01/22 08:58:48;;;;;;;7.70;7.50;;;;;;;-141.02;100.00;102964.34;5116637;28;20307;-65
2024/01/22 09:01:17;;;;;;;5.90;5.80;;;;;;;-141.02;100.00;103464.53;5116676;28;20276;-65
2024/01/22 09:03:44;;;;;;;5.50;5.40;;;;;;;-141.02;100.00;104214.97;5116716;28;20193;-65
2024/01/22 09:06:11;;;;;;;5.77;5.67;;;;;;;-141.02;100.00;103714.66;5116570;28;20583;-65
2024/01/22 09:08:37;;;;;;;7.43;7.23;;;;;;;-141.02;100.00;103964.81;5116472;28;20203;-65
2024/01/22 09:11:05;;;;;;;7.77;7.57;;;;;;;-141.02;100.00;103964.81;5116467;28;20243;-65
2024/01/22 09:13:32;;;;;;;7.17;6.97;;;;;;;-141.02;100.00;103964.81;5116414;28;20220;-65
2024/01/22 09:15:59;;;;;;;6.80;6.60;;;;;;;-141.02;100.00;104214.97;5116204;28;20308;-65
2024/01/22 09:18:27;;;;;;;5.40;5.30;;;;;;;-141.02;100.00;104965.56;5115900;28;20706;-65
2024/01/22 09:20:55;;;;;;;5.00;4.90;;;;;;;-141.02;100.00;104715.34;5115942;28;20197;-65
2024/01/22 09:23:22;;;;;;;5.00;4.90;;;;;;;-141.02;100.00;104965.56;5116238;28;20200;-65
2024/01/22 09:25:49;;;;;;;5.80;5.70;;;;;;;-141.02;100.00;105716.31;5115866;28;20679;-65
2024/01/22 09:28:16;;;;;;;5.60;5.50;;;;;;;-141.02;100.00;105466.03;5116459;28;20247;-65
2024/01/22 09:30:43;;;;;;;5.70;5.60;;;;;;;-141.02;100.00;105215.78;5116091;28;20559;-65
2024/01/22 09:33:10;;;;;;;10.53;10.23;;;;;;;-141.02;100.00;104465.16;5115749;28;20283;-65
2024/01/22 09:35:40;;;;;;;5.40;5.30;;;;;;;-141.02;100.00;104465.16;5116036;28;20197;-65
2024/01/22 09:38:07;;;;;;;5.83;5.73;;;;;;;-141.02;100.00;104715.34;5116350;28;20241;-65
2024/01/22 09:40:34;;;;;;;6.83;6.63;;;;;;;-141.02;100.00;105466.03;5115613;28;20554;-65
2024/01/22 09:43:04;;;;;;;6.67;6.47;;;;;;;-141.02;100.00;105966.59;5115924;28;20196;-65
2024/01/22 09:45:33;;;;;;;15.47;14.77;;;;;;;-141.02;100.00;106467.22;5115507;28;20587;-65
2024/01/22 09:48:00;;;;;;;5.40;5.30;;;;;;;-141.02;100.00;106216.91;5115650;28;20193;-65
2024/01/22 09:50:28;;;;;;;5.73;5.63;;;;;;;-141.02;100.00;105966.59;5115714;28;20201;-65
2024/01/22 09:53:08;;;;;;;6.70;6.50;;;;;;;-141.02;100.00;105716.31;5115362;28;20200;-65
2024/01/22 09:55:38;;;;;;;7.87;7.67;;;;;;;-141.02;100.00;105966.59;5115359;28;20191;-66
2024/01/22 09:58:08;;;;;;;5.93;5.83;;;;;;;-141.02;100.00;106467.22;5115571;28;20209;-66
2024/01/22 10:00:36;;;;;;;5.90;5.80;;;;;;;-141.02;100.00;106216.91;5115191;28;20611;-66
2024/01/22 10:03:03;;;;;;;5.70;5.60;;;;;;;-141.02;100.00;105716.31;5114231;28;20653;-65
2024/01/22 10:05:30;;;;;;;5.73;5.63;;;;;;;-141.02;100.00;105716.31;5115169;28;20201;-66
2024/01/22 10:07:59;;;;;;;6.27;6.17;;;;;;;-141.02;100.00;105466.03;5115392;28;20193;-65
2024/01/22 10:10:26;;;;;;;6.30;6.20;;;;;;;-141.02;100.00;104715.34;5115070;28;20289;-65
2024/01/22 10:13:02;;;;;;;8.30;8.10;;;;;;;-141.02;100.00;104715.34;5115253;28;20201;-66
2024/01/22 10:15:30;;;;;;;6.17;6.07;;;;;;;-141.02;100.00;104715.34;5114973;28;20221;-65
2024/01/22 10:18:08;;;;;;;6.17;6.07;;;;;;;-141.02;100.00;104214.97;5115163;28;20281;-65
2024/01/22 10:20:35;;;;;;;6.77;6.57;;;;;;;-141.02;100.00;104715.34;5115339;28;20189;-65
2024/01/22 10:23:04;;;;;;;7.83;7.63;;;;;;;-141.02;100.00;105466.03;5115024;28;20280;-65
2024/01/22 10:25:31;;;;;;;9.40;9.07;;;;;;;-141.02;100.00;105966.59;5114792;28;20297;-65
2024/01/22 10:28:12;;;;;;;5.60;5.50;;;;;;;-141.02;100.00;105966.59;5114661;28;20233;-65
2024/01/22 10:30:40;;;;;;;5.60;5.50;;;;;;;-141.02;100.00;105215.78;5114959;28;20200;-65
2024/01/22 10:33:11;;;;;;;6.90;6.70;;;;;;;-141.02;100.00;104965.56;5114614;28;20192;-65
2024/01/22 10:35:39;;;;;;;6.93;6.73;;;;;;;-141.02;100.00;104465.16;5115083;28;20266;-65
2024/01/22 10:38:09;;;;;;;8.10;7.90;;;;;;;-141.02;100.00;103714.66;5114604;28;20235;-65
2024/01/22 10:40:36;;;;;;;7.70;7.50;;;;;;;-141.02;100.00;103214.44;5115047;28;20193;-65
2024/01/22 10:43:18;;;;;;;7.70;7.50;;;;;;;-141.02;100.00;102214.16;5114734;28;20615;-66
2024/01/22 10:45:47;;;;;;;6.20;6.10;;;;;;;-141.02;100.00;100964.25;5114692;28;20269;-66
2024/01/22 10:48:16;;;;;;;6.40;6.20;;;;;;;-141.02;100.00;101214.22;5114883;28;20197;-66
2024/01/22 10:50:44;;;;;;;7.30;7.10;;;;;;;-141.02;100.00;99464.97;5114238;28;20199;-65
2024/01/22 10:53:12;;;;;;;6.70;6.50;;;;;;;-141.02;100.00;98965.34;5114489;28;20246;-65
2024/01/22 10:55:39;;;;;;;7.43;7.23;;;;;;;-141.02;100.00;98465.78;5114181;28;20702;-64
2024/01/22 10:58:15;;;;;;;9.70;9.40;;;;;;;-141.02;100.00;98715.56;5114343;28;20199;-65